Time;durP1;ratioP1;P1;durP2;ratioP2;P2;SDS_P1;SDS_P2;PMS_P1;PMS_P2;Temp;Humidity;BMP_temperature;BMP_pressure;BME280_temperature;BME280_humidity;BME280_pressure;Samples;Min_cycle;Max_cycle;Signal;HPM_P1;HPM_P2
2023/12/17 00:01:27;;;;;;;8.43;3.58;;;;;;;8.96;100.00;103377.94;5024329;28;20125;-68
2023/12/17 00:03:52;;;;;;;10.85;3.97;;;;;;;8.95;100.00;103382.22;5057298;28;20037;-68
2023/12/17 00:06:18;;;;;;;7.78;3.90;;;;;;;8.92;100.00;103374.34;5014327;28;20030;-68
2023/12/17 00:08:44;;;;;;;8.93;4.32;;;;;;;8.93;100.00;103367.50;5060837;28;20107;-68
2023/12/17 00:11:10;;;;;;;13.35;4.20;;;;;;;8.92;100.00;103361.47;5026615;28;20071;-68
2023/12/17 00:13:36;;;;;;;8.60;4.10;;;;;;;8.92;100.00;103358.00;5020992;28;20396;-68
2023/12/17 00:16:02;;;;;;;8.23;3.95;;;;;;;8.93;100.00;103362.34;5008664;28;20041;-69
2023/12/17 00:18:28;;;;;;;9.48;4.10;;;;;;;8.92;100.00;103376.03;5037087;28;20037;-68
2023/12/17 00:20:53;;;;;;;12.40;4.50;;;;;;;8.93;100.00;103370.06;5035104;28;20497;-68
2023/12/17 00:23:19;;;;;;;12.00;4.43;;;;;;;8.93;100.00;103373.50;5039766;28;20491;-69
2023/12/17 00:25:44;;;;;;;11.57;5.20;;;;;;;8.93;100.00;103373.50;5035789;28;20040;-68
2023/12/17 00:28:10;;;;;;;11.65;5.03;;;;;;;8.93;100.00;103370.06;5036146;28;20029;-68
2023/12/17 00:30:36;;;;;;;10.77;4.90;;;;;;;8.91;100.00;103359.69;5021567;28;20033;-68
2023/12/17 00:33:01;;;;;;;8.32;4.47;;;;;;;8.91;100.00;103358.81;5021684;28;20076;-69
2023/12/17 00:35:27;;;;;;;7.55;3.88;;;;;;;8.91;100.00;103361.38;5040027;28;20033;-68
2023/12/17 00:37:55;;;;;;;7.25;3.70;;;;;;;8.91;100.00;103366.53;5055458;28;20044;-69
2023/12/17 00:40:24;;;;;;;8.90;3.60;;;;;;;8.91;100.00;103372.59;5038427;28;20052;-69
2023/12/17 00:42:49;;;;;;;7.97;4.18;;;;;;;8.92;100.00;103369.19;5039469;28;20405;-68
2023/12/17 00:45:15;;;;;;;8.60;3.75;;;;;;;8.92;100.00;103376.94;5025624;28;20045;-68
2023/12/17 00:47:40;;;;;;;14.13;4.30;;;;;;;8.93;100.00;103372.66;5005305;28;20523;-68
2023/12/17 00:50:06;;;;;;;9.63;4.38;;;;;;;8.94;100.00;103367.53;5027093;28;20543;-68
2023/12/17 00:52:32;;;;;;;11.65;4.78;;;;;;;8.93;100.00;103370.94;5021948;28;20033;-68
2023/12/17 00:54:57;;;;;;;9.63;3.80;;;;;;;8.94;100.00;103374.41;5023335;28;20037;-68
2023/12/17 00:57:23;;;;;;;10.05;4.20;;;;;;;8.92;100.00;103381.22;5019415;28;20037;-68
2023/12/17 00:59:48;;;;;;;13.63;4.78;;;;;;;8.92;100.00;103378.63;5033940;28;20104;-67
2023/12/17 01:02:13;;;;;;;11.50;4.15;;;;;;;8.92;100.00;103376.94;5023861;28;20099;-68
2023/12/17 01:04:39;;;;;;;9.82;3.92;;;;;;;8.93;100.00;103389.00;5001602;28;20038;-68
2023/12/17 01:07:05;;;;;;;6.65;3.85;;;;;;;8.92;100.00;103387.25;5057606;28;20532;-68
2023/12/17 01:09:30;;;;;;;12.20;4.63;;;;;;;8.94;100.00;103395.03;5009267;28;20045;-67
2023/12/17 01:11:57;;;;;;;7.85;4.57;;;;;;;8.93;100.00;103395.88;5021755;28;20038;-68
2023/12/17 01:14:23;;;;;;;12.23;5.32;;;;;;;8.96;100.00;103396.00;5021715;28;20128;-68
2023/12/17 01:16:48;;;;;;;8.40;4.32;;;;;;;8.95;100.00;103391.66;5042777;28;20063;-68
2023/12/17 01:19:13;;;;;;;9.82;4.15;;;;;;;8.95;100.00;103384.78;5039862;28;20391;-68
2023/12/17 01:21:39;;;;;;;8.85;4.15;;;;;;;8.94;100.00;103390.75;5004510;28;20040;-69
2023/12/17 01:24:05;;;;;;;8.43;4.70;;;;;;;8.93;100.00;103389.00;5025287;28;20046;-68
2023/12/17 01:26:35;;;;;;;12.82;4.50;;;;;;;8.93;100.00;103399.31;5046231;28;20039;-69
2023/12/17 01:29:00;;;;;;;10.30;4.32;;;;;;;8.95;100.00;103399.38;5030668;28;20511;-68
2023/12/17 01:31:26;;;;;;;8.43;4.20;;;;;;;8.94;100.00;103397.63;5039923;28;20037;-69
2023/12/17 01:33:51;;;;;;;8.65;3.58;;;;;;;8.94;100.00;103400.19;5028588;28;20053;-69
2023/12/17 01:36:16;;;;;;;11.18;4.68;;;;;;;8.92;100.00;103394.09;5036505;28;20478;-69
2023/12/17 01:38:42;;;;;;;8.00;3.75;;;;;;;8.90;100.00;103391.44;5045780;28;20057;-69
2023/12/17 01:41:08;;;;;;;8.80;3.47;;;;;;;8.89;100.00;103388.81;5009419;28;20064;-68
2023/12/17 01:43:33;;;;;;;7.50;3.92;;;;;;;8.90;100.00;103393.16;5040445;28;20242;-69
2023/12/17 01:45:59;;;;;;;9.82;4.45;;;;;;;8.89;100.00;103392.28;5061402;28;20030;-68
2023/12/17 01:48:26;;;;;;;13.35;4.65;;;;;;;8.88;100.00;103387.94;5042503;28;20030;-69
2023/12/17 01:50:54;;;;;;;11.57;4.50;;;;;;;8.89;100.00;103389.72;5056303;28;20107;-69
2023/12/17 01:53:20;;;;;;;10.75;4.13;;;;;;;8.88;100.00;103387.03;5057167;28;20072;-69
2023/12/17 01:55:49;;;;;;;9.48;4.32;;;;;;;8.87;100.00;103388.75;5053348;28;20037;-69
2023/12/17 01:58:15;;;;;;;9.05;4.40;;;;;;;8.86;100.00;103387.00;5020503;28;20025;-69
2023/12/17 02:00:41;;;;;;;11.55;3.97;;;;;;;8.87;100.00;103385.31;5024810;28;20045;-68
2023/12/17 02:03:06;;;;;;;6.53;3.80;;;;;;;8.85;100.00;103386.91;5045643;28;20083;-69
2023/12/17 02:05:36;;;;;;;7.05;3.95;;;;;;;8.86;100.00;103388.69;5024764;28;20120;-69
2023/12/17 02:08:03;;;;;;;8.02;4.57;;;;;;;8.85;100.00;103386.91;5055825;28;20183;-69
2023/12/17 02:10:29;;;;;;;9.52;4.25;;;;;;;8.84;100.00;103380.88;5027353;28;20128;-69
2023/12/17 02:12:57;;;;;;;9.73;4.22;;;;;;;8.83;100.00;103379.13;5027994;28;20044;-69
2023/12/17 02:15:22;;;;;;;9.95;4.93;;;;;;;8.83;100.00;103373.97;5027332;28;20110;-69
2023/12/17 02:17:48;;;;;;;12.65;5.00;;;;;;;8.83;100.00;103373.09;5039700;28;20029;-69
2023/12/17 02:20:13;;;;;;;8.68;4.05;;;;;;;8.84;100.00;103361.97;5021259;28;20653;-69
2023/12/17 02:22:39;;;;;;;9.40;4.65;;;;;;;8.81;100.00;103364.44;5054370;28;20045;-71
2023/12/17 02:25:08;;;;;;;10.18;4.60;;;;;;;8.82;100.00;103353.28;5058243;28;20064;-69
2023/12/17 02:27:35;;;;;;;12.60;4.97;;;;;;;8.81;100.00;103354.13;5024969;28;20128;-68
2023/12/17 02:30:01;;;;;;;10.25;4.82;;;;;;;8.78;100.00;103361.72;5021118;28;20049;-68
2023/12/17 02:32:29;;;;;;;10.68;5.13;;;;;;;8.76;100.00;103364.22;5042459;28;20038;-68
2023/12/17 02:34:55;;;;;;;11.48;4.80;;;;;;;8.75;100.00;103366.75;5025715;28;20179;-68
2023/12/17 02:37:21;;;;;;;10.20;5.10;;;;;;;8.73;100.00;103368.38;5026986;28;20509;-68
2023/12/17 02:39:46;;;;;;;9.98;4.95;;;;;;;8.72;100.00;103364.94;5024917;28;20091;-69
2023/12/17 02:42:12;;;;;;;9.93;5.20;;;;;;;8.69;100.00;103361.34;5021493;28;20034;-69
2023/12/17 02:44:37;;;;;;;10.27;5.30;;;;;;;8.67;100.00;103353.53;5023823;28;20037;-69
2023/12/17 02:47:03;;;;;;;12.32;5.70;;;;;;;8.67;100.00;103355.22;5057940;28;20036;-69
2023/12/17 02:49:28;;;;;;;11.35;4.65;;;;;;;8.65;100.00;103355.19;5057176;28;20120;-68
2023/12/17 02:51:55;;;;;;;11.38;4.85;;;;;;;8.65;100.00;103355.19;5017670;28;20034;-69
2023/12/17 02:54:21;;;;;;;10.15;5.15;;;;;;;8.67;100.00;103350.06;5057491;28;20030;-69
2023/12/17 02:56:47;;;;;;;11.23;4.40;;;;;;;8.64;100.00;103350.84;5003622;28;20112;-69
2023/12/17 02:59:13;;;;;;;10.73;4.72;;;;;;;8.64;100.00;103352.53;5021176;28;20136;-69
2023/12/17 03:01:45;;;;;;;13.52;5.53;;;;;;;8.65;100.00;103354.31;5029876;28;20040;-69
2023/12/17 03:04:11;;;;;;;8.20;4.28;;;;;;;8.64;100.00;103353.41;5027940;28;20034;-70
2023/12/17 03:06:40;;;;;;;8.68;3.85;;;;;;;8.64;100.00;103350.84;5037526;28;20069;-68
2023/12/17 03:09:06;;;;;;;11.38;4.10;;;;;;;8.64;100.00;103350.84;5025355;28;20120;-69
2023/12/17 03:11:32;;;;;;;13.38;5.00;;;;;;;8.66;100.00;103351.81;5028245;28;20168;-68
2023/12/17 03:13:57;;;;;;;9.68;4.22;;;;;;;8.66;100.00;103349.22;5058329;28;20427;-68
2023/12/17 03:16:25;;;;;;;8.65;3.80;;;;;;;8.67;100.00;103345.81;5040106;28;20124;-69
2023/12/17 03:18:50;;;;;;;12.40;4.75;;;;;;;8.67;100.00;103345.81;5026555;28;20524;-70
2023/12/17 03:21:15;;;;;;;8.48;4.10;;;;;;;8.68;100.00;103339.84;5022517;28;20057;-69
2023/12/17 03:23:41;;;;;;;8.63;4.82;;;;;;;8.67;100.00;103335.50;5056724;28;20764;-69
2023/12/17 03:26:07;;;;;;;11.90;4.88;;;;;;;8.67;100.00;103330.34;5009580;28;20037;-69
2023/12/17 03:28:32;;;;;;;11.50;4.97;;;;;;;8.67;100.00;103334.59;5008590;28;20044;-68
2023/12/17 03:30:58;;;;;;;15.93;4.82;;;;;;;8.66;100.00;103326.03;5059201;28;20801;-68
2023/12/17 03:33:23;;;;;;;10.23;4.35;;;;;;;8.67;100.00;103327.75;5028057;28;20083;-68
2023/12/17 03:35:49;;;;;;;7.25;3.70;;;;;;;8.65;100.00;103321.66;5025706;28;20033;-68
2023/12/17 03:38:14;;;;;;;8.20;3.83;;;;;;;8.67;100.00;103332.03;5006927;28;20044;-69
2023/12/17 03:40:40;;;;;;;8.77;4.45;;;;;;;8.65;100.00;103323.38;5023749;28;20488;-69
2023/12/17 03:43:06;;;;;;;10.02;5.07;;;;;;;8.64;100.00;103308.69;5049513;28;20029;-68
2023/12/17 03:45:33;;;;;;;7.07;3.83;;;;;;;8.62;100.00;103306.06;5025129;28;20063;-69
2023/12/17 03:47:59;;;;;;;11.95;4.15;;;;;;;8.62;100.00;103305.19;5022230;28;20132;-69
2023/12/17 03:50:25;;;;;;;8.52;3.92;;;;;;;8.61;100.00;103300.84;5056779;28;20713;-69
2023/12/17 03:52:51;;;;;;;7.30;4.03;;;;;;;8.59;100.00;103293.06;5023663;28;20026;-68
2023/12/17 03:55:16;;;;;;;11.40;4.60;;;;;;;8.58;100.00;103283.56;5020443;28;20484;-68
2023/12/17 03:57:42;;;;;;;8.68;4.13;;;;;;;8.60;100.00;103296.53;5020341;28;20044;-69
2023/12/17 04:00:11;;;;;;;10.43;4.57;;;;;;;8.59;100.00;103293.06;5020280;28;20136;-67
2023/12/17 04:02:36;;;;;;;6.90;4.40;;;;;;;8.59;100.00;103293.06;5056379;28;20615;-68
2023/12/17 04:05:02;;;;;;;12.60;4.30;;;;;;;8.58;100.00;103287.03;5027028;28;20123;-68
2023/12/17 04:07:29;;;;;;;9.98;4.25;;;;;;;8.60;100.00;103287.09;5054060;28;20064;-68
2023/12/17 04:09:56;;;;;;;12.95;4.60;;;;;;;8.60;100.00;103287.09;5025641;28;20048;-67
2023/12/17 04:12:21;;;;;;;10.77;4.47;;;;;;;8.61;100.00;103287.94;5013177;28;20034;-68
2023/12/17 04:14:46;;;;;;;12.75;5.03;;;;;;;8.60;100.00;103292.25;5056902;28;20043;-68
2023/12/17 04:17:12;;;;;;;9.48;5.32;;;;;;;8.61;100.00;103283.69;5022925;28;20145;-68
2023/12/17 04:19:37;;;;;;;11.38;5.10;;;;;;;8.63;100.00;103283.75;5058563;28;20060;-68
2023/12/17 04:22:06;;;;;;;11.57;4.78;;;;;;;8.61;100.00;103277.63;5025192;28;20496;-68
2023/12/17 04:24:31;;;;;;;11.85;4.88;;;;;;;8.60;100.00;103275.91;5014989;28;20034;-68
2023/12/17 04:26:57;;;;;;;11.75;5.68;;;;;;;8.59;100.00;103275.00;5024976;28;20033;-68
2023/12/17 04:29:22;;;;;;;10.57;5.47;;;;;;;8.60;100.00;103271.63;5022269;28;20066;-68
2023/12/17 04:31:47;;;;;;;10.82;5.28;;;;;;;8.58;100.00;103271.56;5039769;28;20444;-68
2023/12/17 04:34:13;;;;;;;14.13;5.53;;;;;;;8.57;100.00;103272.38;5016175;28;20560;-68
2023/12/17 04:36:38;;;;;;;11.32;5.63;;;;;;;8.56;100.00;103280.06;5055763;28;20041;-68
2023/12/17 04:39:04;;;;;;;10.40;5.18;;;;;;;8.55;100.00;103278.28;5056645;28;20315;-68
2023/12/17 04:41:30;;;;;;;16.42;5.75;;;;;;;8.51;100.00;103279.88;5020638;28;20382;-67
2023/12/17 04:43:55;;;;;;;15.57;5.50;;;;;;;8.51;100.00;103286.72;5021953;28;20029;-68
2023/12/17 04:46:24;;;;;;;11.40;5.45;;;;;;;8.48;100.00;103294.34;5029720;28;20432;-67
2023/12/17 04:48:49;;;;;;;11.13;5.28;;;;;;;8.50;100.00;103295.28;5025840;28;20045;-67
2023/12/17 04:51:16;;;;;;;15.77;6.15;;;;;;;8.48;100.00;103289.19;5028275;28;20041;-68
2023/12/17 04:53:42;;;;;;;12.57;5.70;;;;;;;8.49;100.00;103293.50;5029305;28;20524;-67
2023/12/17 04:56:08;;;;;;;15.75;6.10;;;;;;;8.46;100.00;103289.09;5031024;28;20036;-67
2023/12/17 04:58:33;;;;;;;11.10;5.82;;;;;;;8.47;100.00;103290.88;5054299;28;20063;-68
2023/12/17 05:00:59;;;;;;;9.48;5.43;;;;;;;8.47;100.00;103297.72;5024929;28;20034;-67
2023/12/17 05:03:25;;;;;;;12.45;6.03;;;;;;;8.46;100.00;103294.25;5036617;28;20030;-68
2023/12/17 05:05:51;;;;;;;12.27;6.03;;;;;;;8.46;100.00;103298.53;5059641;28;20120;-67
2023/12/17 05:08:20;;;;;;;11.48;5.85;;;;;;;8.47;100.00;103300.31;5060027;28;20052;-68
2023/12/17 05:10:46;;;;;;;11.05;5.32;;;;;;;8.47;100.00;103295.16;5044879;28;20132;-68
2023/12/17 05:13:14;;;;;;;10.68;5.35;;;;;;;8.46;100.00;103293.38;5054606;28;20041;-68
2023/12/17 05:15:40;;;;;;;14.70;5.88;;;;;;;8.44;100.00;103285.59;5026349;28;20439;-69
2023/12/17 05:18:05;;;;;;;10.73;5.55;;;;;;;8.45;100.00;103289.06;5061412;28;20033;-69
2023/12/17 05:20:31;;;;;;;10.93;5.45;;;;;;;8.43;100.00;103288.97;5026804;28;20124;-69
2023/12/17 05:22:56;;;;;;;12.88;5.40;;;;;;;8.44;100.00;103295.91;5044173;28;20036;-69
2023/12/17 05:25:21;;;;;;;12.90;5.40;;;;;;;8.40;100.00;103288.84;5019925;28;20055;-69
2023/12/17 05:27:47;;;;;;;8.48;5.18;;;;;;;8.41;100.00;103293.22;5028417;28;20046;-70
2023/12/17 05:30:13;;;;;;;10.52;5.85;;;;;;;8.41;100.00;103282.00;5031309;28;20045;-69
2023/12/17 05:32:39;;;;;;;11.25;5.40;;;;;;;8.41;100.00;103282.00;5030218;28;20033;-69
2023/12/17 05:35:05;;;;;;;11.85;5.10;;;;;;;8.41;100.00;103279.44;5026278;28;20036;-69
2023/12/17 05:37:31;;;;;;;9.73;5.20;;;;;;;8.40;100.00;103277.66;5024102;28;20109;-69
2023/12/17 05:39:56;;;;;;;12.20;5.07;;;;;;;8.40;100.00;103275.09;5026676;28;20592;-69
2023/12/17 05:42:22;;;;;;;9.35;5.38;;;;;;;8.38;100.00;103274.16;5025570;28;20042;-70
2023/12/17 05:44:47;;;;;;;9.07;5.53;;;;;;;8.40;100.00;103281.13;5057797;28;20133;-69
2023/12/17 05:47:13;;;;;;;9.35;4.88;;;;;;;8.40;100.00;103277.66;5059366;28;20060;-69
2023/12/17 05:49:39;;;;;;;8.25;5.05;;;;;;;8.41;100.00;103271.69;5041654;28;20037;-69
2023/12/17 05:52:06;;;;;;;7.70;4.85;;;;;;;8.41;100.00;103270.00;5058582;28;20412;-69
2023/12/17 05:54:31;;;;;;;9.95;5.32;;;;;;;8.40;100.00;103263.09;5054062;28;20030;-69
2023/12/17 05:56:56;;;;;;;9.07;5.10;;;;;;;8.38;100.00;103258.69;5022497;28;20034;-69
2023/12/17 05:59:25;;;;;;;8.73;5.10;;;;;;;8.39;100.00;103266.50;5043594;28;20563;-69
2023/12/17 06:01:53;;;;;;;9.30;5.00;;;;;;;8.40;100.00;103257.03;5028380;28;20030;-69
2023/12/17 06:04:19;;;;;;;7.22;4.57;;;;;;;8.40;100.00;103262.19;5026650;28;20064;-69
2023/12/17 06:06:47;;;;;;;13.02;5.85;;;;;;;8.39;100.00;103261.34;5027852;28;20045;-69
2023/12/17 06:09:13;;;;;;;7.07;4.32;;;;;;;8.38;100.00;103257.00;5020521;28;20144;-69
2023/12/17 06:11:38;;;;;;;9.07;5.05;;;;;;;8.36;100.00;103260.34;5054639;28;20479;-69
2023/12/17 06:14:07;;;;;;;11.60;5.53;;;;;;;8.36;100.00;103265.50;5028394;28;20029;-69
2023/12/17 06:16:32;;;;;;;7.57;4.95;;;;;;;8.36;100.00;103268.06;5028819;28;20041;-69
2023/12/17 06:18:58;;;;;;;12.18;5.00;;;;;;;8.35;100.00;103271.44;5027598;28;20042;-68
2023/12/17 06:21:24;;;;;;;14.25;5.80;;;;;;;8.35;100.00;103266.31;5060093;28;20042;-68
2023/12/17 06:23:51;;;;;;;8.13;4.88;;;;;;;8.34;100.00;103259.38;5026182;28;20049;-68
2023/12/17 06:26:20;;;;;;;9.48;5.20;;;;;;;8.34;100.00;103268.00;5024568;28;20041;-67
2023/12/17 06:28:46;;;;;;;8.52;4.75;;;;;;;8.33;100.00;103262.78;5028758;28;20087;-69
2023/12/17 06:31:12;;;;;;;8.13;5.18;;;;;;;8.31;100.00;103262.72;5057358;28;20034;-69
2023/12/17 06:33:37;;;;;;;7.93;4.75;;;;;;;8.30;100.00;103272.97;5026912;28;20040;-68
2023/12/17 06:36:04;;;;;;;10.02;5.07;;;;;;;8.29;100.00;103272.09;5055712;28;20057;-68
2023/12/17 06:38:29;;;;;;;7.20;4.05;;;;;;;8.27;100.00;103267.69;5050698;28;20065;-69
2023/12/17 06:40:57;;;;;;;8.60;3.95;;;;;;;8.25;100.00;103269.34;5057047;28;20902;-69
2023/12/17 06:43:23;;;;;;;6.70;3.92;;;;;;;8.25;100.00;103277.91;5041639;28;20049;-69
2023/12/17 06:45:48;;;;;;;7.45;4.43;;;;;;;8.24;100.00;103278.75;5023835;28;20026;-68
2023/12/17 06:48:17;;;;;;;8.65;4.47;;;;;;;8.24;100.00;103275.31;5023430;28;20041;-69
2023/12/17 06:50:42;;;;;;;9.32;4.15;;;;;;;8.22;100.00;103272.66;5055813;28;20037;-68
2023/12/17 06:53:08;;;;;;;7.35;4.25;;;;;;;8.23;100.00;103278.69;5024474;28;20666;-68
2023/12/17 06:55:33;;;;;;;8.35;4.40;;;;;;;8.23;100.00;103277.00;5030146;28;20070;-68
2023/12/17 06:57:59;;;;;;;8.35;4.43;;;;;;;8.23;100.00;103278.69;5043051;28;20078;-69
2023/12/17 07:00:24;;;;;;;10.27;4.80;;;;;;;8.22;100.00;103282.09;5008074;28;20041;-69
2023/12/17 07:02:50;;;;;;;9.65;4.40;;;;;;;8.20;100.00;103275.97;5054278;28;20072;-68
2023/12/17 07:05:16;;;;;;;6.78;4.30;;;;;;;8.22;100.00;103280.38;5056512;28;20175;-68
2023/12/17 07:07:47;;;;;;;7.45;4.05;;;;;;;8.19;100.00;103280.25;5023991;28;20421;-69
2023/12/17 07:10:12;;;;;;;10.70;4.43;;;;;;;8.22;100.00;103269.22;5022194;28;20564;-69
2023/12/17 07:12:41;;;;;;;6.72;3.88;;;;;;;8.19;100.00;103267.38;5037312;28;20044;-69
2023/12/17 07:15:07;;;;;;;7.10;4.53;;;;;;;8.17;100.00;103275.84;5053239;28;20029;-69
2023/12/17 07:17:32;;;;;;;6.63;3.70;;;;;;;8.16;100.00;103274.13;5023253;28;20178;-68
2023/12/17 07:19:58;;;;;;;7.60;3.60;;;;;;;8.18;100.00;103277.63;5056785;28;20025;-69
2023/12/17 07:22:26;;;;;;;8.55;3.42;;;;;;;8.19;100.00;103275.09;5023650;28;20029;-69
2023/12/17 07:24:52;;;;;;;6.90;4.32;;;;;;;8.20;100.00;103275.97;5027405;28;20412;-68
2023/12/17 07:27:17;;;;;;;5.60;3.38;;;;;;;8.21;100.00;103270.03;5004706;28;20045;-69
2023/12/17 07:29:43;;;;;;;6.28;3.25;;;;;;;8.21;100.00;103267.44;5005803;28;20049;-67
2023/12/17 07:32:08;;;;;;;5.35;3.58;;;;;;;8.19;100.00;103261.34;5022842;28;20032;-68
2023/12/17 07:34:34;;;;;;;4.95;3.47;;;;;;;8.14;100.00;103263.72;5055837;28;20606;-67
2023/12/17 07:37:00;;;;;;;6.15;3.65;;;;;;;8.13;100.00;103259.38;5017921;28;20515;-68
2023/12/17 07:39:26;;;;;;;7.75;4.20;;;;;;;8.12;100.00;103270.53;5023017;28;20044;-68
2023/12/17 07:41:52;;;;;;;7.47;3.78;;;;;;;8.13;100.00;103261.09;5040923;28;20025;-68
2023/12/17 07:44:17;;;;;;;6.35;3.47;;;;;;;8.15;100.00;103262.03;5003475;28;20042;-68
2023/12/17 07:46:43;;;;;;;5.65;3.72;;;;;;;8.16;100.00;103263.81;5058067;28;20522;-66
2023/12/17 07:49:08;;;;;;;5.15;3.22;;;;;;;8.17;100.00;103262.97;5025171;28;20098;-67
2023/12/17 07:51:34;;;;;;;4.55;2.92;;;;;;;8.19;100.00;103263.94;5025689;28;20041;-68
2023/12/17 07:54:00;;;;;;;5.22;3.25;;;;;;;8.22;100.00;103269.22;5023001;28;20046;-66
2023/12/17 07:56:28;;;;;;;5.22;3.35;;;;;;;8.21;100.00;103262.28;5044429;28;20033;-67
2023/12/17 07:58:54;;;;;;;6.90;3.97;;;;;;;8.25;100.00;103262.47;5028248;28;20067;-67
2023/12/17 08:01:35;;;;;;;5.88;4.18;;;;;;;8.23;100.00;103261.53;5027338;28;20767;-66
2023/12/17 08:04:01;;;;;;;6.53;4.15;;;;;;;8.26;100.00;103261.66;5024700;28;20377;-67
2023/12/17 08:06:26;;;;;;;5.80;4.50;;;;;;;8.26;100.00;103260.78;5037279;28;20033;-66
2023/12/17 08:08:56;;;;;;;6.82;4.70;;;;;;;8.25;100.00;103269.34;5005552;28;20041;-69
2023/12/17 08:11:21;;;;;;;6.68;4.78;;;;;;;8.17;100.00;103268.13;5020360;28;20041;-67
2023/12/17 08:13:50;;;;;;;7.03;4.88;;;;;;;8.20;100.00;103258.81;5024860;28;20048;-66
2023/12/17 08:16:15;;;;;;;7.55;4.72;;;;;;;8.20;100.00;103258.81;5015167;28;20040;-66
2023/12/17 08:18:44;;;;;;;7.38;4.72;;;;;;;8.25;100.00;103262.47;5024774;28;20042;-67
2023/12/17 08:21:09;;;;;;;7.88;4.72;;;;;;;8.28;100.00;103262.59;5056161;28;20037;-66
2023/12/17 08:23:41;;;;;;;7.20;5.03;;;;;;;8.28;100.00;103259.13;4990976;28;20033;-67
2023/12/17 08:26:06;;;;;;;6.90;4.38;;;;;;;8.29;100.00;103263.47;5054875;28;20485;-67
2023/12/17 08:28:31;;;;;;;7.57;4.38;;;;;;;8.28;100.00;103264.28;5058172;28;20042;-67
2023/12/17 08:30:57;;;;;;;5.85;4.25;;;;;;;8.22;100.00;103253.75;5039269;28;20046;-67
2023/12/17 08:33:22;;;;;;;5.68;4.10;;;;;;;8.27;100.00;103253.13;5025378;28;20411;-67
2023/12/17 08:35:48;;;;;;;5.85;4.05;;;;;;;8.29;100.00;103246.31;5039938;28;20045;-67
2023/12/17 08:38:13;;;;;;;5.03;3.75;;;;;;;8.32;100.00;103251.59;5006195;28;20024;-67
2023/12/17 08:40:42;;;;;;;5.70;3.78;;;;;;;8.36;100.00;103250.03;5018923;28;20048;-67
2023/12/17 08:43:09;;;;;;;6.20;3.85;;;;;;;8.41;100.00;103248.50;5023611;28;20045;-67
2023/12/17 08:45:35;;;;;;;6.03;3.92;;;;;;;8.40;100.00;103249.31;5022740;28;20046;-67
2023/12/17 08:48:01;;;;;;;5.82;3.92;;;;;;;8.47;100.00;103254.78;5024284;28;20038;-67
2023/12/17 08:50:27;;;;;;;5.53;3.83;;;;;;;8.54;100.00;103253.34;5023655;28;20042;-67
2023/12/17 08:52:53;;;;;;;4.38;3.45;;;;;;;8.57;100.00;103249.16;5024356;28;20749;-67
2023/12/17 08:55:22;;;;;;;5.45;4.05;;;;;;;8.60;100.00;103250.13;5021433;28;20036;-67
2023/12/17 08:57:47;;;;;;;6.85;4.55;;;;;;;8.59;100.00;103246.66;5024873;28;20032;-67
2023/12/17 09:00:13;;;;;;;7.22;4.55;;;;;;;8.63;100.00;103251.13;5056214;28;20037;-67
2023/12/17 09:02:42;;;;;;;5.55;4.00;;;;;;;8.61;100.00;103239.84;5019293;28;20535;-67
2023/12/17 09:05:08;;;;;;;6.32;4.38;;;;;;;8.69;100.00;103256.53;5024378;28;20104;-67
2023/12/17 09:07:33;;;;;;;7.15;4.50;;;;;;;8.67;100.00;103247.81;5019026;28;20465;-67
2023/12/17 09:09:59;;;;;;;5.15;3.80;;;;;;;8.72;100.00;103243.75;5022203;28;20136;-67
2023/12/17 09:12:25;;;;;;;6.22;3.83;;;;;;;8.76;100.00;103239.56;5018306;28;20129;-67
2023/12/17 09:14:50;;;;;;;7.60;4.32;;;;;;;8.76;100.00;103234.41;5054675;28;20042;-67
2023/12/17 09:17:16;;;;;;;6.32;3.78;;;;;;;8.86;100.00;103249.44;5019954;28;20116;-67
2023/12/17 09:19:41;;;;;;;6.78;3.80;;;;;;;8.88;100.00;103240.91;5025172;28;20113;-67
2023/12/17 09:22:07;;;;;;;5.75;3.03;;;;;;;8.86;100.00;103255.47;5021531;28;20029;-67
2023/12/17 09:24:33;;;;;;;4.45;2.72;;;;;;;8.86;100.00;103247.72;5025972;28;20046;-67
2023/12/17 09:26:59;;;;;;;5.82;3.25;;;;;;;8.89;100.00;103247.84;5037945;28;20479;-67
2023/12/17 09:29:25;;;;;;;5.13;2.85;;;;;;;8.93;100.00;103254.00;5027765;28;20033;-67
2023/12/17 09:31:50;;;;;;;4.55;3.22;;;;;;;8.96;100.00;103256.72;5026506;28;20426;-67
2023/12/17 09:34:16;;;;;;;5.03;2.90;;;;;;;9.03;100.00;103249.25;5004927;28;20044;-67
2023/12/17 09:36:42;;;;;;;4.40;2.75;;;;;;;9.07;100.00;103264.03;5026775;28;20037;-67
2023/12/17 09:39:11;;;;;;;3.55;2.47;;;;;;;9.07;100.00;103261.44;5025336;28;20037;-67
2023/12/17 09:41:36;;;;;;;3.75;2.60;;;;;;;9.08;100.00;103270.91;5028940;28;20087;-67
2023/12/17 09:44:05;;;;;;;4.50;2.92;;;;;;;9.12;100.00;103259.03;5056518;28;20038;-67
2023/12/17 09:46:34;;;;;;;7.60;2.22;;;;;;;9.04;100.00;103269.06;5030895;28;20500;-67
2023/12/17 09:49:00;;;;;;;2.53;2.05;;;;;;;8.94;100.00;103269.53;5028609;28;20041;-67
2023/12/17 09:51:27;;;;;;;3.88;2.53;;;;;;;8.93;100.00;103270.34;5029315;28;20040;-67
2023/12/17 09:53:54;;;;;;;3.80;2.30;;;;;;;8.89;100.00;103265.03;5024791;28;20038;-68
2023/12/17 09:56:23;;;;;;;3.65;2.78;;;;;;;8.88;100.00;103265.81;5059638;28;20041;-67
2023/12/17 09:58:49;;;;;;;5.32;2.85;;;;;;;8.90;100.00;103259.06;5026031;28;20068;-67
2023/12/17 10:01:14;;;;;;;8.63;4.10;;;;;;;8.95;100.00;103254.94;5025766;28;20057;-67
2023/12/17 10:03:40;;;;;;;4.93;3.50;;;;;;;8.92;100.00;103257.41;5026499;28;20762;-68
2023/12/17 10:06:06;;;;;;;4.65;3.33;;;;;;;8.83;100.00;103255.34;5023952;28;20038;-68
2023/12/17 10:08:33;;;;;;;5.50;3.70;;;;;;;8.89;100.00;103247.84;5026826;28;20069;-68
2023/12/17 10:10:58;;;;;;;4.07;3.40;;;;;;;8.89;100.00;103244.38;5024319;28;20492;-68
2023/12/17 10:13:24;;;;;;;5.53;3.40;;;;;;;8.87;100.00;103241.72;5023704;28;20041;-68
2023/12/17 10:15:52;;;;;;;5.97;3.80;;;;;;;8.80;100.00;103244.03;5028308;28;20038;-68
2023/12/17 10:18:18;;;;;;;5.43;3.67;;;;;;;8.78;100.00;103243.09;5027623;28;20520;-68
2023/12/17 10:20:45;;;;;;;6.60;3.72;;;;;;;8.83;100.00;103232.16;5028231;28;20052;-68
2023/12/17 10:23:10;;;;;;;5.28;3.28;;;;;;;8.91;100.00;103235.00;5056099;28;20037;-68
2023/12/17 10:25:36;;;;;;;4.47;3.65;;;;;;;8.90;99.98;103231.53;5027875;28;20022;-68
2023/12/17 10:28:02;;;;;;;4.22;3.28;;;;;;;8.87;100.00;103225.41;5024935;28;20045;-68
2023/12/17 10:30:30;;;;;;;4.82;3.50;;;;;;;8.91;100.00;103222.97;5041972;28;20056;-68
2023/12/17 10:32:56;;;;;;;4.90;3.50;;;;;;;8.87;100.00;103225.41;5027811;28;20099;-68
2023/12/17 10:35:23;;;;;;;5.38;3.13;;;;;;;8.88;100.00;103220.28;5053831;28;20091;-68
2023/12/17 10:37:54;;;;;;;5.70;3.08;;;;;;;8.77;100.00;103212.97;5024329;28;20029;-68
2023/12/17 10:40:23;;;;;;;5.70;3.25;;;;;;;8.73;100.00;103218.81;5022004;28;20040;-68
2023/12/17 10:42:52;;;;;;;5.55;3.20;;;;;;;8.75;100.00;103209.47;5022844;28;20037;-68
2023/12/17 10:45:20;;;;;;;4.90;3.90;;;;;;;8.79;100.00;103211.31;5025637;28;20041;-68
2023/12/17 10:47:56;;;;;;;4.07;3.13;;;;;;;8.75;100.00;103207.78;5022110;28;20033;-68
2023/12/17 10:50:23;;;;;;;4.68;3.17;;;;;;;8.71;100.00;103202.41;5018221;28;20634;-67
2023/12/17 10:52:49;;;;;;;4.15;3.47;;;;;;;8.65;100.00;103197.03;5023145;28;20481;-68
2023/12/17 10:55:15;;;;;;;5.20;3.45;;;;;;;8.73;100.00;103204.22;5024405;28;20040;-68
2023/12/17 10:57:48;;;;;;;4.88;3.75;;;;;;;8.78;100.00;103201.84;5022455;28;20038;-68
2023/12/17 11:00:18;;;;;;;5.50;3.75;;;;;;;8.80;99.81;103205.34;5027852;28;20041;-68
2023/12/17 11:02:49;;;;;;;3.88;3.22;;;;;;;8.85;99.37;103196.97;5029468;28;20397;-68
2023/12/17 11:05:18;;;;;;;6.07;3.33;;;;;;;8.77;99.99;103189.75;5032744;28;20279;-67
2023/12/17 11:07:43;;;;;;;5.35;3.75;;;;;;;8.81;100.00;103192.50;5063853;28;20499;-67
2023/12/17 11:10:13;;;;;;;4.38;3.20;;;;;;;8.76;99.93;103188.00;5034904;28;20040;-67
2023/12/17 11:12:40;;;;;;;5.70;3.72;;;;;;;8.75;99.63;103187.16;5058264;28;20033;-67
2023/12/17 11:15:06;;;;;;;5.75;3.72;;;;;;;8.75;99.68;103182.00;5058676;28;20433;-68
2023/12/17 11:17:31;;;;;;;4.35;3.20;;;;;;;8.82;99.25;103176.22;5029782;28;20029;-67